Time;durP1;ratioP1;P1;durP2;ratioP2;P2;SDS_P1;SDS_P2;PMS_P1;PMS_P2;Temp;Humidity;BMP_temperature;BMP_pressure;BME280_temperature;BME280_humidity;BME280_pressure;Samples;Min_cycle;Max_cycle;Signal;HPM_P1;HPM_P2
2022/03/16 00:01:53;;;;;;;25.83;15.55;;;;;;;;;;5050763;28;20025;-78
2022/03/16 00:04:19;;;;;;;39.53;24.98;;;;;;;;;;5050843;28;20021;-77
2022/03/16 00:06:46;;;;;;;36.78;23.85;;;;;;;;;;5050505;28;20033;-77
2022/03/16 00:09:12;;;;;;;35.28;24.20;;;;;;;;;;5047973;28;20026;-77
2022/03/16 00:11:38;;;;;;;36.17;24.00;;;;;;;;;;5050551;28;20918;-77
2022/03/16 00:14:04;;;;;;;31.00;20.75;;;;;;;;;;5053329;28;20108;-77
2022/03/16 00:16:30;;;;;;;37.03;20.85;;;;;;;;;;5054232;28;20465;-77
2022/03/16 00:18:56;;;;;;;32.75;19.83;;;;;;;;;;5054071;28;20021;-77
2022/03/16 00:21:22;;;;;;;23.38;16.10;;;;;;;;;;5054332;28;20021;-77
2022/03/16 00:23:49;;;;;;;27.10;19.48;;;;;;;;;;5053794;28;20043;-78
2022/03/16 00:26:15;;;;;;;28.95;19.63;;;;;;;;;;5054206;28;20100;-78
2022/03/16 00:28:41;;;;;;;27.95;18.48;;;;;;;;;;5053770;28;20035;-77
2022/03/16 00:31:07;;;;;;;28.27;18.50;;;;;;;;;;5053941;28;20021;-78
2022/03/16 00:33:34;;;;;;;22.02;15.32;;;;;;;;;;5053785;28;20021;-76
2022/03/16 00:36:00;;;;;;;23.13;15.55;;;;;;;;;;5053725;28;20104;-77
2022/03/16 00:38:26;;;;;;;22.95;15.23;;;;;;;;;;5053897;28;20049;-77
2022/03/16 00:40:52;;;;;;;25.52;16.80;;;;;;;;;;5053566;28;20086;-77
2022/03/16 00:43:18;;;;;;;33.75;23.15;;;;;;;;;;5053779;28;20430;-77
2022/03/16 00:45:44;;;;;;;40.65;23.83;;;;;;;;;;5053516;28;20111;-77
2022/03/16 00:48:11;;;;;;;39.90;24.20;;;;;;;;;;5053713;28;20040;-78
2022/03/16 00:50:37;;;;;;;22.40;15.23;;;;;;;;;;5052641;28;20464;-77
2022/03/16 00:53:03;;;;;;;27.40;16.20;;;;;;;;;;5053806;28;20055;-76
2022/03/16 00:55:29;;;;;;;28.88;17.50;;;;;;;;;;5054296;28;20037;-78
2022/03/16 00:57:56;;;;;;;25.25;13.93;;;;;;;;;;5053776;28;20105;-78
2022/03/16 01:00:22;;;;;;;19.42;12.98;;;;;;;;;;5054044;28;20033;-78
2022/03/16 01:02:48;;;;;;;22.25;14.27;;;;;;;;;;5053977;28;20075;-78
2022/03/16 01:05:14;;;;;;;23.88;13.90;;;;;;;;;;5053877;28;20025;-77
2022/03/16 01:07:40;;;;;;;34.45;22.85;;;;;;;;;;5053904;28;20033;-77
2022/03/16 01:10:06;;;;;;;25.98;16.17;;;;;;;;;;5053551;28;20028;-77
2022/03/16 01:12:32;;;;;;;27.25;14.98;;;;;;;;;;5053857;28;20104;-77
2022/03/16 01:14:59;;;;;;;17.73;11.13;;;;;;;;;;5052207;28;20060;-76
2022/03/16 01:17:25;;;;;;;25.02;13.55;;;;;;;;;;5053848;28;20087;-77
2022/03/16 01:19:51;;;;;;;26.60;14.05;;;;;;;;;;5053594;28;20447;-77
2022/03/16 01:22:17;;;;;;;21.40;13.38;;;;;;;;;;5053512;28;20025;-78
2022/03/16 01:24:43;;;;;;;29.02;15.85;;;;;;;;;;5053360;28;20555;-77
2022/03/16 01:27:09;;;;;;;35.60;18.98;;;;;;;;;;5052988;28;20025;-77
2022/03/16 01:29:35;;;;;;;29.50;17.55;;;;;;;;;;5053637;28;20104;-77
2022/03/16 01:32:01;;;;;;;40.65;20.15;;;;;;;;;;5053179;28;20040;-78
2022/03/16 01:34:27;;;;;;;22.83;14.38;;;;;;;;;;5053572;28;20110;-77
2022/03/16 01:36:54;;;;;;;18.35;11.45;;;;;;;;;;5053283;28;20064;-77
2022/03/16 01:39:20;;;;;;;21.83;14.05;;;;;;;;;;5052964;28;20484;-77
2022/03/16 01:41:46;;;;;;;26.25;17.35;;;;;;;;;;5053274;28;20426;-78
2022/03/16 01:44:12;;;;;;;27.08;17.73;;;;;;;;;;5052728;28;20395;-78
2022/03/16 01:46:39;;;;;;;32.03;20.17;;;;;;;;;;5053228;28;20029;-78
2022/03/16 01:49:05;;;;;;;31.05;20.02;;;;;;;;;;5052890;28;20163;-77
2022/03/16 01:51:31;;;;;;;25.38;15.93;;;;;;;;;;5052975;28;20491;-76
2022/03/16 01:53:57;;;;;;;22.45;16.10;;;;;;;;;;5052970;28;20033;-76
2022/03/16 01:56:23;;;;;;;31.15;19.95;;;;;;;;;;5052533;28;20020;-77
2022/03/16 01:58:49;;;;;;;22.67;17.75;;;;;;;;;;5052849;28;20033;-77
2022/03/16 02:01:17;;;;;;;19.13;16.00;;;;;;;;;;5052651;28;20032;-78
2022/03/16 02:03:43;;;;;;;23.08;15.55;;;;;;;;;;5052894;28;20033;-78
2022/03/16 02:06:10;;;;;;;26.20;16.20;;;;;;;;;;5052674;28;20025;-77
2022/03/16 02:08:36;;;;;;;19.88;14.82;;;;;;;;;;5052795;28;20063;-76
2022/03/16 02:11:03;;;;;;;18.15;12.30;;;;;;;;;;5052595;28;20112;-77
2022/03/16 02:13:29;;;;;;;23.60;16.13;;;;;;;;;;5052403;28;20057;-77
2022/03/16 02:15:56;;;;;;;20.85;15.20;;;;;;;;;;5052619;28;20036;-77
2022/03/16 02:18:22;;;;;;;16.02;11.82;;;;;;;;;;5052286;28;20025;-77
2022/03/16 02:20:50;;;;;;;14.65;10.88;;;;;;;;;;5052849;28;20120;-78
2022/03/16 02:23:16;;;;;;;15.85;11.35;;;;;;;;;;5052321;28;20108;-76
2022/03/16 02:25:50;;;;;;;14.27;10.57;;;;;;;;;;5052074;28;20063;-77
2022/03/16 02:28:16;;;;;;;14.18;10.35;;;;;;;;;;5049845;28;20060;-77
2022/03/16 02:30:43;;;;;;;12.43;10.15;;;;;;;;;;5051837;28;20469;-78
2022/03/16 02:33:11;;;;;;;13.85;10.32;;;;;;;;;;5048963;28;20113;-77
2022/03/16 02:35:37;;;;;;;17.35;11.13;;;;;;;;;;5051189;28;20056;-77
2022/03/16 02:38:05;;;;;;;19.27;12.95;;;;;;;;;;5051671;28;20031;-79
2022/03/16 02:40:32;;;;;;;18.35;12.05;;;;;;;;;;5048927;28;20017;-77
2022/03/16 02:42:58;;;;;;;16.13;11.57;;;;;;;;;;5051519;28;20029;-79
2022/03/16 02:45:26;;;;;;;19.70;13.68;;;;;;;;;;5050108;28;20108;-77
2022/03/16 02:47:52;;;;;;;21.05;15.07;;;;;;;;;;5051639;28;20033;-78
2022/03/16 02:50:19;;;;;;;20.27;14.02;;;;;;;;;;5051200;28;20079;-76
2022/03/16 02:52:45;;;;;;;22.90;15.35;;;;;;;;;;5051362;28;20079;-77
2022/03/16 02:55:13;;;;;;;19.52;15.27;;;;;;;;;;5048773;28;20104;-77
2022/03/16 02:57:39;;;;;;;23.50;15.65;;;;;;;;;;5052294;28;20043;-79
2022/03/16 03:00:06;;;;;;;24.55;16.20;;;;;;;;;;5051750;28;20033;-77
2022/03/16 03:02:32;;;;;;;20.58;14.75;;;;;;;;;;5051245;28;20040;-77
2022/03/16 03:04:58;;;;;;;18.65;13.40;;;;;;;;;;5051359;28;20349;-77
2022/03/16 03:07:24;;;;;;;19.65;12.60;;;;;;;;;;5050882;28;20040;-78
2022/03/16 03:09:50;;;;;;;21.20;14.23;;;;;;;;;;5051514;28;20525;-76
2022/03/16 03:12:17;;;;;;;19.23;11.90;;;;;;;;;;5051406;28;20017;-78
2022/03/16 03:14:43;;;;;;;19.88;13.82;;;;;;;;;;5051131;28;20025;-77
2022/03/16 03:17:09;;;;;;;25.13;15.93;;;;;;;;;;5051195;28;20025;-78
2022/03/16 03:19:35;;;;;;;22.27;14.27;;;;;;;;;;5050827;28;20025;-78
2022/03/16 03:22:04;;;;;;;18.77;12.65;;;;;;;;;;5051086;28;20499;-78
2022/03/16 03:24:30;;;;;;;20.20;13.18;;;;;;;;;;5051536;28;20033;-77
2022/03/16 03:26:56;;;;;;;19.08;11.80;;;;;;;;;;5051301;28;20415;-77
2022/03/16 03:29:23;;;;;;;20.02;14.85;;;;;;;;;;5050865;28;20029;-78
2022/03/16 03:31:49;;;;;;;22.52;14.82;;;;;;;;;;5051120;28;20032;-77
2022/03/16 03:34:16;;;;;;;26.77;16.58;;;;;;;;;;5051099;28;20052;-77
2022/03/16 03:36:42;;;;;;;24.25;16.33;;;;;;;;;;5050889;28;20078;-77
2022/03/16 03:39:08;;;;;;;23.50;14.73;;;;;;;;;;5050805;28;20065;-78
2022/03/16 03:41:34;;;;;;;19.20;13.10;;;;;;;;;;5050549;28;20084;-77
2022/03/16 03:44:00;;;;;;;16.77;11.80;;;;;;;;;;5050967;28;20028;-78
2022/03/16 03:46:26;;;;;;;14.88;11.30;;;;;;;;;;5050914;28;20052;-78
2022/03/16 03:48:52;;;;;;;16.70;11.40;;;;;;;;;;5054582;28;20025;-77
2022/03/16 03:51:20;;;;;;;18.27;11.27;;;;;;;;;;5054715;28;20032;-79
2022/03/16 03:53:47;;;;;;;16.20;11.98;;;;;;;;;;5054916;28;20033;-78
2022/03/16 03:56:13;;;;;;;20.80;13.88;;;;;;;;;;5055241;28;20029;-77
2022/03/16 03:58:39;;;;;;;22.55;16.42;;;;;;;;;;5055022;28;20032;-77
2022/03/16 04:01:06;;;;;;;20.55;14.23;;;;;;;;;;5054950;28;20378;-77
2022/03/16 04:03:32;;;;;;;23.67;15.05;;;;;;;;;;5055010;28;20025;-77
2022/03/16 04:05:59;;;;;;;21.42;15.15;;;;;;;;;;5053825;28;20441;-77
2022/03/16 04:08:26;;;;;;;21.77;15.15;;;;;;;;;;5055032;28;20067;-78
2022/03/16 04:10:52;;;;;;;17.20;13.48;;;;;;;;;;5054866;28;20064;-76
2022/03/16 04:13:18;;;;;;;21.92;14.52;;;;;;;;;;5055011;28;20059;-78
2022/03/16 04:15:44;;;;;;;33.28;20.60;;;;;;;;;;5054870;28;20420;-77
2022/03/16 04:18:10;;;;;;;17.20;13.05;;;;;;;;;;5054962;28;20024;-77
2022/03/16 04:20:36;;;;;;;16.58;11.93;;;;;;;;;;5054634;28;20037;-77
2022/03/16 04:23:03;;;;;;;17.15;12.63;;;;;;;;;;5054840;28;20033;-77
2022/03/16 04:25:29;;;;;;;16.15;11.70;;;;;;;;;;5054794;28;20028;-77
2022/03/16 04:27:56;;;;;;;15.82;11.30;;;;;;;;;;5054370;28;20037;-78
2022/03/16 04:30:22;;;;;;;17.58;12.57;;;;;;;;;;5054581;28;20502;-78
2022/03/16 04:32:51;;;;;;;21.73;15.43;;;;;;;;;;5054691;28;20029;-77
2022/03/16 04:35:18;;;;;;;31.15;16.63;;;;;;;;;;5054867;28;20033;-78
2022/03/16 04:37:44;;;;;;;22.67;15.73;;;;;;;;;;5054327;28;20033;-77
2022/03/16 04:40:11;;;;;;;29.17;19.42;;;;;;;;;;5054474;28;20029;-77
2022/03/16 04:42:37;;;;;;;27.10;18.98;;;;;;;;;;5054359;28;20358;-77
2022/03/16 04:45:03;;;;;;;24.52;17.88;;;;;;;;;;5054144;28;20036;-78
2022/03/16 04:47:29;;;;;;;38.22;23.20;;;;;;;;;;5054338;28;20037;-78
2022/03/16 04:49:55;;;;;;;47.53;28.70;;;;;;;;;;5053904;28;20029;-78
2022/03/16 04:52:22;;;;;;;44.13;27.88;;;;;;;;;;5053982;28;20049;-78
2022/03/16 04:54:48;;;;;;;31.08;22.50;;;;;;;;;;5053988;28;20029;-77
2022/03/16 04:57:14;;;;;;;35.72;23.75;;;;;;;;;;5053112;28;20499;-78
2022/03/16 04:59:40;;;;;;;35.63;23.63;;;;;;;;;;5052591;28;20017;-78
2022/03/16 05:02:07;;;;;;;39.70;25.25;;;;;;;;;;5052892;28;20416;-77
2022/03/16 05:04:33;;;;;;;44.58;27.77;;;;;;;;;;5053469;28;20396;-77
2022/03/16 05:06:59;;;;;;;64.28;39.40;;;;;;;;;;5053722;28;20112;-79
2022/03/16 05:09:25;;;;;;;54.95;34.25;;;;;;;;;;5053834;28;20533;-77
2022/03/16 05:11:51;;;;;;;50.20;33.90;;;;;;;;;;5053642;28;20033;-77
2022/03/16 05:14:17;;;;;;;65.15;42.58;;;;;;;;;;5053812;28;20036;-76
2022/03/16 05:16:43;;;;;;;59.20;32.03;;;;;;;;;;5053982;28;20170;-77
2022/03/16 05:19:09;;;;;;;31.85;19.95;;;;;;;;;;5053809;28;20035;-78
2022/03/16 05:21:36;;;;;;;31.05;20.00;;;;;;;;;;5053777;28;20033;-76
2022/03/16 05:24:02;;;;;;;43.60;27.33;;;;;;;;;;5053564;28;20100;-77
2022/03/16 05:26:28;;;;;;;65.45;38.15;;;;;;;;;;5053575;28;20079;-77
2022/03/16 05:28:55;;;;;;;96.70;54.60;;;;;;;;;;5053287;28;20025;-77
2022/03/16 05:31:22;;;;;;;45.67;28.67;;;;;;;;;;5053582;28;20029;-78
2022/03/16 05:33:48;;;;;;;31.48;22.10;;;;;;;;;;5053562;28;20040;-77
2022/03/16 05:36:14;;;;;;;41.30;26.38;;;;;;;;;;5053140;28;20064;-77
2022/03/16 05:38:40;;;;;;;46.50;29.50;;;;;;;;;;5052886;28;20494;-77
2022/03/16 05:41:06;;;;;;;78.82;45.25;;;;;;;;;;5034121;28;20030;-77
2022/03/16 05:43:32;;;;;;;44.03;26.50;;;;;;;;;;5033494;28;20427;-78
2022/03/16 05:45:59;;;;;;;33.05;22.05;;;;;;;;;;5033295;28;20026;-77
2022/03/16 05:48:25;;;;;;;33.15;21.77;;;;;;;;;;5033080;28;20397;-78
2022/03/16 05:50:51;;;;;;;34.95;24.73;;;;;;;;;;5033390;28;20064;-77
2022/03/16 05:53:17;;;;;;;37.08;23.83;;;;;;;;;;5032596;28;20053;-77
2022/03/16 05:55:43;;;;;;;31.65;23.30;;;;;;;;;;5032957;28;20064;-77
2022/03/16 05:58:09;;;;;;;47.65;26.52;;;;;;;;;;5032635;28;20029;-77
2022/03/16 06:00:37;;;;;;;50.13;33.80;;;;;;;;;;5033167;28;20033;-76
2022/03/16 06:03:04;;;;;;;52.67;34.13;;;;;;;;;;5032813;28;20030;-79
2022/03/16 06:05:30;;;;;;;51.42;31.63;;;;;;;;;;5032900;28;20029;-77
2022/03/16 06:07:56;;;;;;;68.03;41.50;;;;;;;;;;5032832;28;20045;-78
2022/03/16 06:10:22;;;;;;;70.55;48.22;;;;;;;;;;5049987;28;20032;-77
2022/03/16 06:12:51;;;;;;;75.85;49.17;;;;;;;;;;5046281;28;20025;-78
2022/03/16 06:15:18;;;;;;;80.38;51.78;;;;;;;;;;5030874;28;20105;-78
2022/03/16 06:17:44;;;;;;;79.03;49.22;;;;;;;;;;5032413;28;20080;-78
2022/03/16 06:20:10;;;;;;;86.47;56.97;;;;;;;;;;5032402;28;20068;-78
2022/03/16 06:22:36;;;;;;;78.82;48.05;;;;;;;;;;5031808;28;20056;-78
2022/03/16 06:25:03;;;;;;;88.80;55.00;;;;;;;;;;5032085;28;20052;-78
2022/03/16 06:27:29;;;;;;;60.83;38.65;;;;;;;;;;5038335;28;20037;-78
2022/03/16 06:29:55;;;;;;;67.65;41.55;;;;;;;;;;5050362;28;20041;-77
2022/03/16 06:32:21;;;;;;;38.08;26.77;;;;;;;;;;5051430;28;20032;-78
2022/03/16 06:34:47;;;;;;;34.85;22.58;;;;;;;;;;5051721;28;20029;-78
2022/03/16 06:37:13;;;;;;;32.33;22.95;;;;;;;;;;5052224;28;20060;-78
2022/03/16 06:39:40;;;;;;;40.75;26.88;;;;;;;;;;5051279;28;20068;-77
2022/03/16 06:42:06;;;;;;;48.28;30.58;;;;;;;;;;5051617;28;20029;-79
2022/03/16 06:44:32;;;;;;;62.33;38.22;;;;;;;;;;5051546;28;20480;-78
2022/03/16 06:46:58;;;;;;;104.15;63.00;;;;;;;;;;5047337;28;20033;-79
2022/03/16 06:49:24;;;;;;;102.00;61.72;;;;;;;;;;5050962;28;20473;-78
2022/03/16 06:51:50;;;;;;;107.22;61.13;;;;;;;;;;5049128;28;20067;-81
2022/03/16 06:54:16;;;;;;;95.80;62.58;;;;;;;;;;5050985;28;20028;-79
2022/03/16 06:56:43;;;;;;;86.43;56.78;;;;;;;;;;5050883;28;20025;-80
2022/03/16 06:59:09;;;;;;;79.70;53.70;;;;;;;;;;5051497;28;20024;-79
2022/03/16 07:01:35;;;;;;;63.80;45.38;;;;;;;;;;5050985;28;20414;-78
2022/03/16 07:04:01;;;;;;;68.10;45.47;;;;;;;;;;5050631;28;20390;-78
2022/03/16 07:06:27;;;;;;;60.75;40.35;;;;;;;;;;5054265;28;20031;-79
2022/03/16 07:08:53;;;;;;;53.85;34.60;;;;;;;;;;5050845;28;20066;-79
2022/03/16 07:11:19;;;;;;;40.28;28.17;;;;;;;;;;5050944;28;20373;-79
2022/03/16 07:14:30;;;;;;;35.63;23.98;;;;;;;;;;5052961;28;20025;-82
2022/03/16 07:16:32;;;;;;;168.07;108.30;;;;;;;;;;5050465;28;20045;-79
2022/03/16 07:18:59;;;;;;;88.85;47.78;;;;;;;;;;5049886;28;20571;-79
2022/03/16 07:21:25;;;;;;;46.95;27.00;;;;;;;;;;5051148;28;20029;-77
2022/03/16 07:23:51;;;;;;;31.70;23.30;;;;;;;;;;5037092;28;20041;-77
2022/03/16 07:26:17;;;;;;;29.88;21.55;;;;;;;;;;5034839;28;20096;-77
2022/03/16 07:28:43;;;;;;;41.55;26.40;;;;;;;;;;5034291;28;20037;-77
2022/03/16 07:31:09;;;;;;;42.75;29.70;;;;;;;;;;5053302;28;20124;-77
2022/03/16 07:33:36;;;;;;;43.88;31.75;;;;;;;;;;5053916;28;20032;-77
2022/03/16 07:36:02;;;;;;;48.70;33.50;;;;;;;;;;5053934;28;20067;-77
2022/03/16 07:38:31;;;;;;;44.53;30.40;;;;;;;;;;5054530;28;20067;-77
2022/03/16 07:40:59;;;;;;;48.50;33.50;;;;;;;;;;5054154;28;20044;-77
2022/03/16 07:43:25;;;;;;;35.13;21.48;;;;;;;;;;5054368;28;20040;-77
2022/03/16 07:45:51;;;;;;;19.38;13.18;;;;;;;;;;5054446;28;20758;-77
2022/03/16 07:48:17;;;;;;;16.35;13.18;;;;;;;;;;5053598;28;20467;-78
2022/03/16 07:50:43;;;;;;;17.63;12.20;;;;;;;;;;5052805;28;20025;-76
2022/03/16 07:53:09;;;;;;;19.92;13.32;;;;;;;;;;5052732;28;20106;-76
2022/03/16 07:55:35;;;;;;;19.17;11.90;;;;;;;;;;5054345;28;20037;-75
2022/03/16 07:58:02;;;;;;;27.48;17.60;;;;;;;;;;5053638;28;20040;-80
2022/03/16 08:00:28;;;;;;;15.00;11.40;;;;;;;;;;5052687;28;20032;-76
2022/03/16 08:02:54;;;;;;;22.45;14.32;;;;;;;;;;5053531;28;20060;-76
2022/03/16 08:05:24;;;;;;;21.50;15.50;;;;;;;;;;5053881;28;20021;-76
2022/03/16 08:07:50;;;;;;;17.27;12.35;;;;;;;;;;5053458;28;20036;-76
2022/03/16 08:10:17;;;;;;;14.82;11.57;;;;;;;;;;5053235;28;20036;-76
2022/03/16 08:12:43;;;;;;;15.60;12.38;;;;;;;;;;5053729;28;20021;-75
2022/03/16 08:15:09;;;;;;;35.30;21.40;;;;;;;;;;5053299;28;20056;-77
2022/03/16 08:17:35;;;;;;;21.98;14.68;;;;;;;;;;5053393;28;20025;-77
2022/03/16 08:20:01;;;;;;;16.10;12.25;;;;;;;;;;5053266;28;20167;-76
2022/03/16 08:22:32;;;;;;;18.95;13.80;;;;;;;;;;5053148;28;20455;-76
2022/03/16 08:24:59;;;;;;;16.23;12.75;;;;;;;;;;5053083;28;20040;-76
2022/03/16 08:27:25;;;;;;;13.20;10.65;;;;;;;;;;5052257;28;20404;-76
2022/03/16 08:29:52;;;;;;;14.75;11.60;;;;;;;;;;5053043;28;20021;-76
2022/03/16 08:32:18;;;;;;;12.45;9.90;;;;;;;;;;5053224;28;20035;-76
2022/03/16 08:34:45;;;;;;;16.05;11.98;;;;;;;;;;5050649;28;20037;-76
2022/03/16 08:37:11;;;;;;;13.57;11.10;;;;;;;;;;5053378;28;20033;-76
2022/03/16 08:39:38;;;;;;;14.30;10.15;;;;;;;;;;5053525;28;20540;-76
2022/03/16 08:42:04;;;;;;;18.70;13.02;;;;;;;;;;5052866;28;20061;-77
2022/03/16 08:44:31;;;;;;;17.70;11.68;;;;;;;;;;5052955;28;20494;-76
2022/03/16 08:46:58;;;;;;;14.25;11.13;;;;;;;;;;5053534;28;20169;-76
2022/03/16 08:49:24;;;;;;;13.50;10.30;;;;;;;;;;5053143;28;20061;-76
2022/03/16 08:51:50;;;;;;;15.70;11.85;;;;;;;;;;5054821;28;20048;-75
2022/03/16 08:54:16;;;;;;;16.80;10.95;;;;;;;;;;5053310;28;20028;-76
2022/03/16 08:56:43;;;;;;;14.63;10.93;;;;;;;;;;5052861;28;20415;-78
2022/03/16 08:59:10;;;;;;;15.60;10.98;;;;;;;;;;5051963;28;20094;-78
2022/03/16 09:01:36;;;;;;;15.98;11.20;;;;;;;;;;5052679;28;20105;-77
2022/03/16 09:04:02;;;;;;;24.90;16.85;;;;;;;;;;5053047;28;20048;-80
2022/03/16 09:06:29;;;;;;;26.38;17.55;;;;;;;;;;5052850;28;20036;-79
2022/03/16 09:08:55;;;;;;;20.17;14.07;;;;;;;;;;5052160;28;20037;-78
2022/03/16 09:11:21;;;;;;;25.65;14.05;;;;;;;;;;5052621;28;20568;-78
2022/03/16 09:13:47;;;;;;;22.83;12.32;;;;;;;;;;5052868;28;20021;-79
2022/03/16 09:16:34;;;;;;;19.83;12.40;;;;;;;;;;5046624;28;20065;-79
2022/03/16 09:19:16;;;;;;;21.55;12.63;;;;;;;;;;5051440;28;20480;-80
2022/03/16 09:21:45;;;;;;;16.75;11.98;;;;;;;;;;5051191;28;20025;-78
2022/03/16 09:24:11;;;;;;;20.73;14.10;;;;;;;;;;5050857;28;20076;-79
2022/03/16 09:26:39;;;;;;;14.93;11.63;;;;;;;;;;5052249;28;20033;-76
2022/03/16 09:29:08;;;;;;;15.38;12.20;;;;;;;;;;5050167;28;20036;-77
2022/03/16 09:31:43;;;;;;;14.65;11.18;;;;;;;;;;5051200;28;20049;-77
2022/03/16 09:34:09;;;;;;;16.63;12.05;;;;;;;;;;5050941;28;20033;-76
2022/03/16 09:36:37;;;;;;;21.65;13.18;;;;;;;;;;5051815;28;20029;-78
2022/03/16 09:39:03;;;;;;;20.65;13.10;;;;;;;;;;5051591;28;20092;-77
2022/03/16 09:41:29;;;;;;;13.18;11.48;;;;;;;;;;5052257;28;20028;-76
2022/03/16 09:43:55;;;;;;;19.70;15.50;;;;;;;;;;5051776;28;20035;-77
2022/03/16 09:46:22;;;;;;;94.25;60.83;;;;;;;;;;5051364;28;20028;-77
2022/03/16 09:48:49;;;;;;;36.17;23.33;;;;;;;;;;5051659;28;20047;-76
2022/03/16 09:51:16;;;;;;;15.23;12.40;;;;;;;;;;5051467;28;20029;-77
2022/03/16 09:53:43;;;;;;;19.83;11.25;;;;;;;;;;5051330;28;20112;-77
2022/03/16 09:56:09;;;;;;;14.40;11.07;;;;;;;;;;5052053;28;20025;-76
2022/03/16 09:58:36;;;;;;;21.83;11.85;;;;;;;;;;5051290;28;20035;-76
2022/03/16 10:01:05;;;;;;;12.90;10.85;;;;;;;;;;5051728;28;20071;-77
2022/03/16 10:03:32;;;;;;;11.88;9.38;;;;;;;;;;5043536;28;20053;-76
2022/03/16 10:05:59;;;;;;;13.23;10.43;;;;;;;;;;5038819;28;20071;-74
2022/03/16 10:08:26;;;;;;;14.20;10.45;;;;;;;;;;5051415;28;20043;-75
2022/03/16 10:13:48;;;;;;;14.00;10.10;;;;;;;;;;5050692;28;20511;-75
2022/03/16 10:16:14;;;;;;;11.80;9.45;;;;;;;;;;5051240;28;20036;-77
2022/03/16 10:18:47;;;;;;;14.02;10.75;;;;;;;;;;5051210;28;20546;-77
2022/03/16 10:21:13;;;;;;;15.20;9.98;;;;;;;;;;5051549;28;20025;-76
2022/03/16 10:23:40;;;;;;;15.40;11.93;;;;;;;;;;5050568;28;20095;-76
2022/03/16 10:26:06;;;;;;;13.70;11.38;;;;;;;;;;5051360;28;20132;-76
2022/03/16 10:28:33;;;;;;;16.73;10.82;;;;;;;;;;5051136;28;20041;-77
2022/03/16 10:31:00;;;;;;;13.25;10.48;;;;;;;;;;5050477;28;20388;-75
2022/03/16 10:33:33;;;;;;;11.38;9.25;;;;;;;;;;5050412;28;20047;-77
2022/03/16 10:36:20;;;;;;;12.80;9.05;;;;;;;;;;5050930;28;20039;-75
2022/03/16 10:38:58;;;;;;;10.15;8.15;;;;;;;;;;5048604;28;20040;-78
2022/03/16 10:47:14;;;;;;;10.75;9.50;;;;;;;;;;5047920;28;20399;-76
2022/03/16 10:49:41;;;;;;;17.40;10.02;;;;;;;;;;5049870;28;20036;-76
2022/03/16 10:52:14;;;;;;;13.70;11.05;;;;;;;;;;5051042;28;20044;-76
2022/03/16 10:54:41;;;;;;;27.02;17.45;;;;;;;;;;5050635;28;20033;-74
2022/03/16 10:57:13;;;;;;;14.65;12.73;;;;;;;;;;5049545;28;20515;-75
2022/03/16 10:59:40;;;;;;;13.88;12.00;;;;;;;;;;5048593;28;20025;-76
2022/03/16 11:02:12;;;;;;;18.25;11.13;;;;;;;;;;5050174;28;20060;-79
2022/03/16 11:04:38;;;;;;;14.25;10.23;;;;;;;;;;5050695;28;20033;-76
2022/03/16 11:07:05;;;;;;;62.08;15.15;;;;;;;;;;5050707;28;20744;-76
2022/03/16 11:09:35;;;;;;;12.60;11.15;;;;;;;;;;5050742;28;20066;-79
2022/03/16 11:14:50;;;;;;;17.67;13.70;;;;;;;;;;5033528;28;20393;-77
2022/03/16 11:17:17;;;;;;;17.58;14.00;;;;;;;;;;5038451;28;20036;-78
2022/03/16 11:19:45;;;;;;;25.08;19.10;;;;;;;;;;5038224;28;20480;-78
2022/03/16 11:22:11;;;;;;;18.55;13.20;;;;;;;;;;5046131;28;20455;-76
2022/03/16 11:24:39;;;;;;;13.52;11.65;;;;;;;;;;5049372;28;20032;-77
2022/03/16 11:27:17;;;;;;;19.55;14.73;;;;;;;;;;5050524;28;20040;-78
2022/03/16 11:30:02;;;;;;;18.83;14.85;;;;;;;;;;5049345;28;20150;-78
2022/03/16 11:32:32;;;;;;;15.15;13.30;;;;;;;;;;5048304;28;20039;-76
2022/03/16 11:35:00;;;;;;;14.48;11.05;;;;;;;;;;5043022;28;20128;-76
2022/03/16 11:37:45;;;;;;;17.38;12.40;;;;;;;;;;5036777;28;20124;-78
2022/03/16 11:40:11;;;;;;;;;;;;;;;;;;5043667;28;20021;-76
2022/03/16 11:42:38;;;;;;;17.77;13.15;;;;;;;;;;5042598;28;20371;-78
2022/03/16 11:45:23;;;;;;;17.45;13.50;;;;;;;;;;5043270;28;20029;-77
2022/03/16 11:47:49;;;;;;;21.88;13.45;;;;;;;;;;5045660;28;20043;-80
2022/03/16 11:50:19;;;;;;;13.98;10.52;;;;;;;;;;5030656;28;20637;-77
2022/03/16 11:52:59;;;;;;;12.80;10.00;;;;;;;;;;5047107;28;20045;-75
2022/03/16 11:55:43;;;;;;;20.77;14.98;;;;;;;;;;5047378;28;20049;-75
2022/03/16 11:58:28;;;;;;;14.85;11.75;;;;;;;;;;5049141;28;20044;-76
2022/03/16 12:01:13;;;;;;;14.70;11.90;;;;;;;;;;5047314;28;20017;-78
2022/03/16 12:03:45;;;;;;;17.00;12.82;;;;;;;;;;5048075;28;20033;-77
2022/03/16 12:06:12;;;;;;;15.63;12.32;;;;;;;;;;5048302;28;20044;-75
2022/03/16 12:08:59;;;;;;;14.43;12.00;;;;;;;;;;5050623;28;20032;-78
2022/03/16 12:14:10;;;;;;;13.32;8.70;;;;;;;;;;5051683;28;20071;-77
2022/03/16 12:16:54;;;;;;;10.60;7.97;;;;;;;;;;5052941;28;20477;-77
2022/03/16 12:19:21;;;;;;;;;;;;;;;;;;5051493;28;20111;-76
2022/03/16 12:21:47;;;;;;;23.67;16.42;;;;;;;;;;5052430;28;19923;-78
2022/03/16 12:29:48;;;;;;;13.70;9.30;;;;;;;;;;5049888;28;19912;-77
2022/03/16 12:32:20;;;;;;;11.75;9.52;;;;;;;;;;5052858;28;20488;-76
2022/03/16 12:34:46;;;;;;;17.48;13.18;;;;;;;;;;5052063;28;20033;-78
2022/03/16 12:37:13;;;;;;;15.85;11.05;;;;;;;;;;5051247;28;20044;-78
2022/03/16 12:39:45;;;;;;;13.73;10.60;;;;;;;;;;5052456;28;20044;-79
2022/03/16 12:42:31;;;;;;;15.68;11.40;;;;;;;;;;5053364;28;20430;-80
2022/03/16 12:45:03;;;;;;;19.38;11.43;;;;;;;;;;5052791;28;20021;-81
2022/03/16 12:47:38;;;;;;;17.63;11.35;;;;;;;;;;5053283;28;20025;-75
2022/03/16 12:50:09;;;;;;;17.33;13.60;;;;;;;;;;5053899;28;20021;-73
2022/03/16 12:52:37;;;;;;;15.27;11.32;;;;;;;;;;5053939;28;20500;-79
2022/03/16 12:55:09;;;;;;;17.70;11.23;;;;;;;;;;5053932;28;20063;-74
2022/03/16 12:57:35;;;;;;;17.15;13.00;;;;;;;;;;5052354;28;20477;-77
2022/03/16 13:00:03;;;;;;;17.05;10.82;;;;;;;;;;5052930;28;20036;-77
2022/03/16 13:02:34;;;;;;;13.63;9.70;;;;;;;;;;5052021;28;20057;-81
2022/03/16 13:05:01;;;;;;;12.60;8.85;;;;;;;;;;5051812;28;20102;-78
2022/03/16 13:07:27;;;;;;;10.30;8.80;;;;;;;;;;5053979;28;20554;-78
2022/03/16 13:09:54;;;;;;;10.77;8.23;;;;;;;;;;5053935;28;20086;-79
2022/03/16 13:12:22;;;;;;;10.05;7.35;;;;;;;;;;5050342;28;20444;-78
2022/03/16 13:14:48;;;;;;;8.68;6.85;;;;;;;;;;5041729;28;20035;-75
2022/03/16 13:17:16;;;;;;;9.23;7.10;;;;;;;;;;5043720;28;20025;-76
2022/03/16 13:19:44;;;;;;;9.63;6.95;;;;;;;;;;5043109;28;20083;-76
2022/03/16 13:22:10;;;;;;;14.25;8.93;;;;;;;;;;5050961;28;20041;-76
2022/03/16 13:24:36;;;;;;;11.27;8.90;;;;;;;;;;5049190;28;20037;-76
2022/03/16 13:27:04;;;;;;;11.82;8.15;;;;;;;;;;5044515;28;20021;-77
2022/03/16 13:29:32;;;;;;;10.25;7.68;;;;;;;;;;5052013;28;20025;-77
2022/03/16 13:32:00;;;;;;;12.13;8.05;;;;;;;;;;5052674;28;20033;-77
2022/03/16 13:34:26;;;;;;;9.32;7.40;;;;;;;;;;5044967;28;20037;-77
2022/03/16 13:36:53;;;;;;;11.60;7.43;;;;;;;;;;5043126;28;20115;-75
2022/03/16 13:39:30;;;;;;;9.77;7.53;;;;;;;;;;5042179;28;20044;-78
2022/03/16 13:42:05;;;;;;;9.98;8.48;;;;;;;;;;5054480;28;20484;-76
2022/03/16 13:44:47;;;;;;;10.93;8.05;;;;;;;;;;5045021;28;20060;-77
2022/03/16 13:47:15;;;;;;;9.32;7.35;;;;;;;;;;5050499;28;20086;-76
2022/03/16 13:49:42;;;;;;;12.32;8.02;;;;;;;;;;5051936;28;20564;-77
2022/03/16 13:52:10;;;;;;;10.30;8.35;;;;;;;;;;5051811;28;20072;-75
2022/03/16 13:54:36;;;;;;;10.80;8.20;;;;;;;;;;5051161;28;20032;-75
2022/03/16 13:57:09;;;;;;;15.27;13.10;;;;;;;;;;5050370;28;20024;-76
2022/03/16 13:59:35;;;;;;;12.80;8.88;;;;;;;;;;5050863;28;20135;-77
2022/03/16 14:02:09;;;;;;;12.30;7.97;;;;;;;;;;5052123;28;20358;-76
2022/03/16 14:04:38;;;;;;;10.15;8.82;;;;;;;;;;5051422;28;20051;-76
2022/03/16 14:07:17;;;;;;;14.38;8.23;;;;;;;;;;5052505;28;20037;-75
2022/03/16 14:09:44;;;;;;;8.45;7.10;;;;;;;;;;5051566;28;20115;-77
2022/03/16 14:12:14;;;;;;;10.48;7.43;;;;;;;;;;5051446;28;20029;-76
2022/03/16 14:14:40;;;;;;;13.15;9.90;;;;;;;;;;5051329;28;20029;-76
2022/03/16 14:17:06;;;;;;;38.53;12.15;;;;;;;;;;5047649;28;20029;-76
2022/03/16 14:19:40;;;;;;;10.93;8.13;;;;;;;;;;5051749;28;20037;-78
2022/03/16 14:22:06;;;;;;;13.75;9.45;;;;;;;;;;5051600;28;20037;-75
2022/03/16 14:24:33;;;;;;;12.25;9.30;;;;;;;;;;5051884;28;20029;-78
2022/03/16 14:29:45;;;;;;;10.65;9.23;;;;;;;;;;5039368;28;20067;-79
2022/03/16 14:32:12;;;;;;;16.38;11.65;;;;;;;;;;5049550;28;20086;-76
2022/03/16 14:34:40;;;;;;;12.73;8.93;;;;;;;;;;5050695;28;20028;-77
2022/03/16 14:37:06;;;;;;;8.85;6.70;;;;;;;;;;5050657;28;20033;-77
2022/03/16 14:39:32;;;;;;;13.82;7.53;;;;;;;;;;5050297;28;20036;-78
2022/03/16 14:41:58;;;;;;;18.08;9.95;;;;;;;;;;5050564;28;20051;-77
2022/03/16 14:44:25;;;;;;;12.13;9.90;;;;;;;;;;5048262;28;20033;-77